Temp: 4.1°C   Baro: 1034.3mb
  Wind: 0.0mph   Dir: SSW (196°)
  Rain: 0.0mm (0.0mm/hr)
  Solar: 0W/m2  Hum: 85%

Historic data

Bath Spa Weather Station Historical Data
Daily Summary for November 30, 2021 Units:  Both    English   Metric
Daily Weekly Monthly Yearly Custom
  High: Low: Average:
Temperature: 52 °F /  11.1 °C 43.4 °F /  6.3 °C 49.9 °F /  9.9 °C
Dew Point: 50.2 °F /  10.1 °C 42.4 °F /  5.8 °C 48.1 °F /  8.9 °C
Humidity: 94% 87% 90%
Wind Speed: 15.8mph /  25.4km/h - 8.4mph /  13.5km/h
Wind Gust: 29mph /  46.7km/h - -
Wind- - West
Pressure: 30.01 in /  1016.1 hPa 29.51 in /  999.2 hPa -
Precipitation: 0.03 in /  0.76 mm    
Historical Graphs
 
 
Tabular Data for November 30, 2021
Time Temperature Dew Point Pressure Wind Wind Speed Wind Gust Humidity Rainfall Rate (Hourly) solar
00:09 43.4 °F /  6.3 °C 42.4 °F /  5.8 °C 30.01in /  1016.1hPa NNW 2mph /  3.2km/h 5mph /  8km/h 93% 0.00in /  0mm 0 W/m2
00:14 43.8 °F /  6.6 °C 42.7 °F /  5.9 °C 30.01in /  1016.1hPa NNW 1.8mph /  2.9km/h 6mph /  9.7km/h 93% 0.00in /  0mm 0 W/m2
00:19 44 °F /  6.7 °C 42.9 °F /  6.1 °C 30.01in /  1016.1hPa NNW 2.8mph /  4.5km/h 6mph /  9.7km/h 93% 0.00in /  0mm 0 W/m2
00:24 44.2 °F /  6.8 °C 43.2 °F /  6.2 °C 30.01in /  1016.1hPa NNW 2.5mph /  4km/h 8mph /  12.9km/h 93% 0.00in /  0mm 0 W/m2
00:29 44.6 °F /  7 °C 43.5 °F /  6.4 °C 30.01in /  1016.1hPa NNW 5.1mph /  8.2km/h 8mph /  12.9km/h 93% 0.00in /  0mm 0 W/m2
00:34 44.9 °F /  7.2 °C 43.8 °F /  6.6 °C 30.01in /  1016.1hPa NNW 3.6mph /  5.8km/h 8mph /  12.9km/h 93% 0.00in /  0mm 0 W/m2
00:39 45.1 °F /  7.3 °C 44 °F /  6.7 °C 30.01in /  1016.1hPa NNW 3.2mph /  5.1km/h 8mph /  12.9km/h 93% 0.00in /  0mm 0 W/m2
00:44 45.3 °F /  7.4 °C 44.2 °F /  6.8 °C 30.01in /  1016.1hPa NNW 4.6mph /  7.4km/h 8mph /  12.9km/h 93% 0.00in /  0mm 0 W/m2
00:49 45.7 °F /  7.6 °C 44.4 °F /  6.9 °C 30.01in /  1016.1hPa NW 5.2mph /  8.4km/h 9mph /  14.5km/h 92% 0.00in /  0mm 0 W/m2
00:54 45.9 °F /  7.7 °C 44.7 °F /  7.1 °C 30.01in /  1016.1hPa NW 7.6mph /  12.2km/h 11mph /  17.7km/h 92% 0.00in /  0mm 0 W/m2
00:59 46.1 °F /  7.8 °C 44.9 °F /  7.2 °C 30.01in /  1016.1hPa WNW 7.8mph /  12.6km/h 10mph /  16.1km/h 92% 0.00in /  0mm 0 W/m2
01:04 46.5 °F /  8.1 °C 45.1 °F /  7.3 °C 30.01in /  1016.1hPa WNW 6.4mph /  10.3km/h 12mph /  19.3km/h 91.6% 0.00in /  0mm 0 W/m2
01:09 46.8 °F /  8.2 °C 45.2 °F /  7.3 °C 30.01in /  1016.1hPa WNW 7.2mph /  11.6km/h 14mph /  22.5km/h 91% 0.00in /  0mm 0 W/m2
01:14 47.1 °F /  8.4 °C 45.3 °F /  7.4 °C 30.01in /  1016.1hPa WNW 8.2mph /  13.2km/h 14mph /  22.5km/h 90.6% 0.00in /  0mm 0 W/m2
01:19 47.3 °F /  8.5 °C 45.3 °F /  7.4 °C 30.01in /  1016.1hPa WNW 8.8mph /  14.2km/h 15mph /  24.1km/h 90% 0.00in /  0mm 0 W/m2
01:24 47.5 °F /  8.6 °C 45.3 °F /  7.4 °C 30.01in /  1016.1hPa WNW 8.2mph /  13.2km/h 14mph /  22.5km/h 89% 0.00in /  0mm 0 W/m2
01:29 47.7 °F /  8.7 °C 45.2 °F /  7.3 °C 30.01in /  1016.1hPa WNW 9.2mph /  14.8km/h 14mph /  22.5km/h 88.2% 0.00in /  0mm 0 W/m2
01:34 47.7 °F /  8.7 °C 45.1 °F /  7.3 °C 30.01in /  1016.1hPa WNW 7.4mph /  11.9km/h 12mph /  19.3km/h 88% 0.00in /  0mm 0 W/m2
01:39 47.7 °F /  8.7 °C 45.1 °F /  7.3 °C 30.01in /  1016.1hPa WNW 6.4mph /  10.3km/h 11mph /  17.7km/h 88% 0.00in /  0mm 0 W/m2
01:44 47.7 °F /  8.7 °C 45.1 °F /  7.3 °C 30.01in /  1016.1hPa WNW 5.6mph /  9km/h 11mph /  17.7km/h 88% 0.00in /  0mm 0 W/m2
01:49 47.7 °F /  8.7 °C 45.1 °F /  7.3 °C 30.01in /  1016.1hPa WNW 8.6mph /  13.8km/h 13mph /  20.9km/h 88% 0.00in /  0mm 0 W/m2
01:54 47.7 °F /  8.7 °C 45.1 °F /  7.3 °C 30.01in /  1016.1hPa WNW 7.2mph /  11.6km/h 12mph /  19.3km/h 88% 0.00in /  0mm 0 W/m2
01:59 47.7 °F /  8.7 °C 45.1 °F /  7.3 °C 30.01in /  1016.1hPa WNW 7.3mph /  11.7km/h 11mph /  17.7km/h 88% 0.00in /  0mm 0 W/m2
02:04 47.7 °F /  8.7 °C 45.2 °F /  7.3 °C 30.01in /  1016.1hPa WNW 7.4mph /  11.9km/h 11mph /  17.7km/h 88% 0.00in /  0mm 0 W/m2
02:09 47.8 °F /  8.8 °C 45.3 °F /  7.4 °C 30.01in /  1016.1hPa WNW 7.4mph /  11.9km/h 12mph /  19.3km/h 88% 0.00in /  0mm 0 W/m2
02:14 47.8 °F /  8.8 °C 45.3 °F /  7.4 °C 30.01in /  1016.1hPa WNW 7.8mph /  12.6km/h 11mph /  17.7km/h 88% 0.00in /  0mm 0 W/m2
02:19 48 °F /  8.9 °C 45.2 °F /  7.3 °C 30.01in /  1016.1hPa WNW 6.6mph /  10.6km/h 12mph /  19.3km/h 87.4% 0.00in /  0mm 0 W/m2
02:24 48.2 °F /  9 °C 45.3 °F /  7.4 °C 30.01in /  1016.1hPa WNW 7.2mph /  11.6km/h 13mph /  20.9km/h 87% 0.00in /  0mm 0 W/m2
02:29 48.4 °F /  9.1 °C 45.5 °F /  7.5 °C 30.01in /  1016.1hPa WNW 8.2mph /  13.2km/h 15mph /  24.1km/h 87% 0.00in /  0mm 0 W/m2
02:34 48.4 °F /  9.1 °C 45.5 °F /  7.5 °C 30.01in /  1016.1hPa WNW 6.6mph /  10.6km/h 13mph /  20.9km/h 87% 0.00in /  0mm 0 W/m2
02:39 48.4 °F /  9.1 °C 45.5 °F /  7.5 °C 30.01in /  1016.1hPa WNW 7mph /  11.3km/h 11mph /  17.7km/h 87% 0.00in /  0mm 0 W/m2
02:44 48.4 °F /  9.1 °C 45.5 °F /  7.5 °C 30.01in /  1016.1hPa WNW 6.8mph /  10.9km/h 12mph /  19.3km/h 87% 0.00in /  0mm 0 W/m2
02:49 48.4 °F /  9.1 °C 45.5 °F /  7.5 °C 30.00in /  1015.8hPa WNW 7.4mph /  11.9km/h 14mph /  22.5km/h 87% 0.00in /  0mm 0 W/m2
02:54 48.5 °F /  9.2 °C 45.6 °F /  7.6 °C 30.00in /  1015.8hPa WNW 8mph /  12.9km/h 13mph /  20.9km/h 87% 0.00in /  0mm 0 W/m2
02:59 48.6 °F /  9.2 °C 45.7 °F /  7.6 °C 30.00in /  1015.8hPa WNW 6.2mph /  10km/h 14mph /  22.5km/h 87% 0.00in /  0mm 0 W/m2
03:04 48.6 °F /  9.2 °C 45.7 °F /  7.6 °C 30.00in /  1015.8hPa WNW 6.3mph /  10.1km/h 14mph /  22.5km/h 87% 0.00in /  0mm 0 W/m2
03:09 48.6 °F /  9.2 °C 45.7 °F /  7.6 °C 30.00in /  1015.8hPa WNW 7.4mph /  11.9km/h 13mph /  20.9km/h 87% 0.00in /  0mm 0 W/m2
03:14 48.6 °F /  9.2 °C 45.7 °F /  7.6 °C 30.00in /  1015.8hPa WNW 8.8mph /  14.2km/h 15mph /  24.1km/h 87% 0.00in /  0mm 0 W/m2
03:19 48.6 °F /  9.2 °C 45.8 °F /  7.7 °C 30.00in /  1015.8hPa WNW 8.2mph /  13.2km/h 17mph /  27.4km/h 87% 0.00in /  0mm 0 W/m2
03:24 48.7 °F /  9.3 °C 45.9 °F /  7.7 °C 29.99in /  1015.5hPa WNW 8.7mph /  14km/h 17mph /  27.4km/h 87% 0.00in /  0mm 0 W/m2
03:29 48.7 °F /  9.3 °C 45.9 °F /  7.7 °C 29.99in /  1015.5hPa WNW 9.6mph /  15.4km/h 18mph /  29km/h 87% 0.00in /  0mm 0 W/m2
03:34 48.7 °F /  9.3 °C 45.9 °F /  7.7 °C 29.99in /  1015.5hPa WNW 8.5mph /  13.7km/h 13mph /  20.9km/h 87% 0.00in /  0mm 0 W/m2
03:39 48.7 °F /  9.3 °C 45.9 °F /  7.7 °C 29.99in /  1015.5hPa WNW 6.9mph /  11.1km/h 18mph /  29km/h 87% 0.00in /  0mm 0 W/m2
03:44 48.7 °F /  9.3 °C 45.9 °F /  7.7 °C 29.99in /  1015.5hPa WNW 8.6mph /  13.8km/h 11mph /  17.7km/h 87% 0.00in /  0mm 0 W/m2
03:49 48.7 °F /  9.3 °C 45.9 °F /  7.7 °C 29.99in /  1015.5hPa NW 9.2mph /  14.8km/h 18mph /  29km/h 87% 0.00in /  0mm 0 W/m2
03:54 48.9 °F /  9.4 °C 46 °F /  7.8 °C 29.99in /  1015.5hPa WNW 11mph /  17.7km/h 18mph /  29km/h 87% 0.01in /  0.25mm 0 W/m2
03:59 48.9 °F /  9.4 °C 46 °F /  7.8 °C 29.99in /  1015.5hPa NW 11.3mph /  18.2km/h 17mph /  27.4km/h 87% 0.01in /  0.25mm 0 W/m2
04:04 49 °F /  9.4 °C 46.1 °F /  7.8 °C 29.99in /  1015.5hPa NW 9mph /  14.5km/h 16mph /  25.7km/h 87% 0.01in /  0.25mm 0 W/m2
04:09 49.1 °F /  9.5 °C 46.2 °F /  7.9 °C 29.99in /  1015.5hPa WNW 11.1mph /  17.9km/h 17mph /  27.4km/h 87% 0.01in /  0.25mm 0 W/m2
04:14 49.1 °F /  9.5 °C 46.2 °F /  7.9 °C 29.99in /  1015.5hPa NW 6.6mph /  10.6km/h 13mph /  20.9km/h 87% 0.01in /  0.25mm 0 W/m2
04:18 48.9 °F /  9.4 °C 46 °F /  7.8 °C 29.99in /  1015.5hPa WNW 7.4mph /  11.9km/h 10mph /  16.1km/h 87% 0.01in /  0.25mm 0 W/m2
04:24 49.1 °F /  9.5 °C 46.2 °F /  7.9 °C 29.99in /  1015.5hPa WNW 8.3mph /  13.4km/h 17mph /  27.4km/h 87.2% 0.01in /  0.25mm 0 W/m2
04:29 49.1 °F /  9.5 °C 46.6 °F /  8.1 °C 29.99in /  1015.5hPa WNW 9.8mph /  15.8km/h 15mph /  24.1km/h 88% 0.01in /  0.25mm 0 W/m2
04:34 49 °F /  9.4 °C 46.3 °F /  7.9 °C 29.99in /  1015.5hPa NW 5.6mph /  9km/h 15mph /  24.1km/h 87.4% 0.01in /  0.25mm 0 W/m2
04:39 48.9 °F /  9.4 °C 46.4 °F /  8 °C 29.99in /  1015.5hPa WNW 8mph /  12.9km/h 14mph /  22.5km/h 88% 0.01in /  0.25mm 0 W/m2
04:44 48.9 °F /  9.4 °C 46.4 °F /  8 °C 29.99in /  1015.5hPa WNW 6.9mph /  11.1km/h 19mph /  30.6km/h 88% 0.01in /  0.25mm 0 W/m2
04:49 48.9 °F /  9.4 °C 46.4 °F /  8 °C 29.99in /  1015.5hPa WNW 10.7mph /  17.2km/h 16mph /  25.7km/h 88% 0.01in /  0.25mm 0 W/m2
04:54 48.9 °F /  9.4 °C 46.4 °F /  8 °C 29.98in /  1015.1hPa WNW 10.4mph /  16.7km/h 18mph /  29km/h 88% 0.01in /  0.25mm 0 W/m2
04:59 48.9 °F /  9.4 °C 46.6 °F /  8.1 °C 29.98in /  1015.1hPa WNW 7.7mph /  12.4km/h 15mph /  24.1km/h 88.4% 0.00in /  0mm 0 W/m2
05:04 48.9 °F /  9.4 °C 46.8 °F /  8.2 °C 29.98in /  1015.1hPa WNW 8.2mph /  13.2km/h 15mph /  24.1km/h 89% 0.00in /  0mm 0 W/m2
05:09 49 °F /  9.4 °C 46.9 °F /  8.3 °C 29.98in /  1015.1hPa WNW 10.6mph /  17.1km/h 16mph /  25.7km/h 89% 0.00in /  0mm 0 W/m2
05:14 49.2 °F /  9.6 °C 47 °F /  8.3 °C 29.98in /  1015.1hPa WNW 7.2mph /  11.6km/h 16mph /  25.7km/h 89% 0.00in /  0mm 0 W/m2
05:19 49.3 °F /  9.6 °C 47.1 °F /  8.4 °C 29.98in /  1015.1hPa WNW 10.9mph /  17.5km/h 18mph /  29km/h 89% 0.00in /  0mm 0 W/m2
05:24 49.4 °F /  9.7 °C 47.2 °F /  8.4 °C 29.98in /  1015.1hPa WNW 9.3mph /  15km/h 18mph /  29km/h 89% 0.00in /  0mm 0 W/m2
05:29 49.5 °F /  9.7 °C 47.3 °F /  8.5 °C 29.98in /  1015.1hPa WNW 8.4mph /  13.5km/h 15mph /  24.1km/h 89% 0.00in /  0mm 0 W/m2
05:34 49.5 °F /  9.7 °C 47.3 °F /  8.5 °C 29.98in /  1015.1hPa WNW 6.5mph /  10.5km/h 15mph /  24.1km/h 89% 0.00in /  0mm 0 W/m2
05:39 49.5 °F /  9.7 °C 47.3 °F /  8.5 °C 29.98in /  1015.1hPa WNW 6.2mph /  10km/h 14mph /  22.5km/h 89% 0.00in /  0mm 0 W/m2
05:44 49.5 °F /  9.7 °C 47.4 °F /  8.6 °C 29.98in /  1015.1hPa WNW 7.2mph /  11.6km/h 12mph /  19.3km/h 89% 0.00in /  0mm 0 W/m2
05:49 49.6 °F /  9.8 °C 47.5 °F /  8.6 °C 29.98in /  1015.1hPa WNW 6.4mph /  10.3km/h 13mph /  20.9km/h 89% 0.00in /  0mm 0 W/m2
05:54 49.6 °F /  9.8 °C 47.5 °F /  8.6 °C 29.98in /  1015.1hPa WNW 6.6mph /  10.6km/h 12mph /  19.3km/h 89% 0.00in /  0mm 0 W/m2
05:59 49.6 °F /  9.8 °C 47.5 °F /  8.6 °C 29.98in /  1015.1hPa WNW 8.1mph /  13km/h 14mph /  22.5km/h 89% 0.00in /  0mm 0 W/m2
06:04 49.6 °F /  9.8 °C 47.5 °F /  8.6 °C 29.98in /  1015.1hPa WNW 8.8mph /  14.2km/h 17mph /  27.4km/h 89% 0.00in /  0mm 0 W/m2
06:09 49.8 °F /  9.9 °C 47.7 °F /  8.7 °C 29.98in /  1015.1hPa WNW 6.3mph /  10.1km/h 12mph /  19.3km/h 89% 0.00in /  0mm 0 W/m2
06:14 49.8 °F /  9.9 °C 47.7 °F /  8.7 °C 29.98in /  1015.1hPa WNW 8.2mph /  13.2km/h 18mph /  29km/h 89% 0.00in /  0mm 0 W/m2
06:19 49.8 °F /  9.9 °C 47.7 °F /  8.7 °C 29.98in /  1015.1hPa WNW 8.6mph /  13.8km/h 15mph /  24.1km/h 89% 0.00in /  0mm 0 W/m2
06:24 49.9 °F /  9.9 °C 47.8 °F /  8.8 °C 29.98in /  1015.1hPa WNW 7.8mph /  12.6km/h 16mph /  25.7km/h 89% 0.00in /  0mm 0 W/m2
06:29 49.8 °F /  9.9 °C 47.7 °F /  8.7 °C 29.98in /  1015.1hPa WNW 8.4mph /  13.5km/h 15mph /  24.1km/h 89% 0.00in /  0mm 0 W/m2
06:34 49.8 °F /  9.9 °C 47.7 °F /  8.7 °C 29.98in /  1015.1hPa WNW 10.3mph /  16.6km/h 17mph /  27.4km/h 89% 0.00in /  0mm 0 W/m2
06:39 49.8 °F /  9.9 °C 47.7 °F /  8.7 °C 29.98in /  1015.1hPa WNW 8.4mph /  13.5km/h 15mph /  24.1km/h 89% 0.00in /  0mm 0 W/m2
06:44 49.8 °F /  9.9 °C 47.7 °F /  8.7 °C 29.97in /  1014.8hPa WNW 7.8mph /  12.6km/h 13mph /  20.9km/h 89% 0.00in /  0mm 0 W/m2
06:49 49.6 °F /  9.8 °C 47.6 °F /  8.7 °C 29.97in /  1014.8hPa WNW 7.3mph /  11.7km/h 14mph /  22.5km/h 89.5% 0.00in /  0mm 0 W/m2
06:54 49.6 °F /  9.8 °C 47.7 °F /  8.7 °C 29.97in /  1014.8hPa West 9.4mph /  15.1km/h 17mph /  27.4km/h 90% 0.00in /  0mm 0 W/m2
06:59 49.6 °F /  9.8 °C 47.7 °F /  8.7 °C 29.98in /  1015.1hPa West 8mph /  12.9km/h 11mph /  17.7km/h 90% 0.00in /  0mm 0 W/m2
07:04 49.6 °F /  9.8 °C 47.7 °F /  8.7 °C 29.98in /  1015.1hPa West 7.2mph /  11.6km/h 16mph /  25.7km/h 90% 0.00in /  0mm 0 W/m2
07:09 49.6 °F /  9.8 °C 47.7 °F /  8.7 °C 29.98in /  1015.1hPa WNW 9mph /  14.5km/h 16mph /  25.7km/h 90% 0.00in /  0mm 0 W/m2
07:14 49.8 °F /  9.9 °C 47.8 °F /  8.8 °C 29.98in /  1015.1hPa WNW 9.4mph /  15.1km/h 20mph /  32.2km/h 90% 0.00in /  0mm 0 W/m2
07:19 49.8 °F /  9.9 °C 47.8 °F /  8.8 °C 29.98in /  1015.1hPa West 10.6mph /  17.1km/h 17mph /  27.4km/h 90% 0.00in /  0mm 0 W/m2
07:24 49.8 °F /  9.9 °C 47.8 °F /  8.8 °C 29.98in /  1015.1hPa WNW 8.2mph /  13.2km/h 18mph /  29km/h 90% 0.00in /  0mm 0 W/m2
07:29 49.8 °F /  9.9 °C 47.8 °F /  8.8 °C 29.98in /  1015.1hPa WNW 6.2mph /  10km/h 17mph /  27.4km/h 90% 0.00in /  0mm 0 W/m2
07:34 49.8 °F /  9.9 °C 47.8 °F /  8.8 °C 29.97in /  1014.8hPa West 5.8mph /  9.3km/h 15mph /  24.1km/h 90% 0.00in /  0mm 0 W/m2
07:39 49.9 °F /  9.9 °C 47.9 °F /  8.8 °C 29.97in /  1014.8hPa WNW 7.4mph /  11.9km/h 15mph /  24.1km/h 90% 0.00in /  0mm 0 W/m2
07:44 50 °F /  10 °C 48 °F /  8.9 °C 29.98in /  1015.1hPa WNW 7.3mph /  11.7km/h 12mph /  19.3km/h 90% 0.00in /  0mm 0 W/m2
07:49 50 °F /  10 °C 48 °F /  8.9 °C 29.97in /  1014.8hPa West 6.6mph /  10.6km/h 16mph /  25.7km/h 90% 0.00in /  0mm 0 W/m2
07:54 50 °F /  10 °C 48 °F /  8.9 °C 29.97in /  1014.8hPa WNW 5.2mph /  8.4km/h 15mph /  24.1km/h 90% 0.00in /  0mm 0 W/m2
07:59 50 °F /  10 °C 48 °F /  8.9 °C 29.97in /  1014.8hPa WNW 6.1mph /  9.8km/h 15mph /  24.1km/h 90% 0.00in /  0mm 0 W/m2
08:04 50 °F /  10 °C 48 °F /  8.9 °C 29.97in /  1014.8hPa West 8.2mph /  13.2km/h 17mph /  27.4km/h 90% 0.00in /  0mm 0 W/m2
08:09 50.1 °F /  10.1 °C 48.1 °F /  8.9 °C 29.97in /  1014.8hPa WNW 7.8mph /  12.6km/h 17mph /  27.4km/h 90% 0.00in /  0mm 5 W/m2
08:14 50.2 °F /  10.1 °C 48.2 °F /  9 °C 29.97in /  1014.8hPa WNW 5.6mph /  9km/h 15mph /  24.1km/h 90% 0.00in /  0mm 5 W/m2
08:19 50.2 °F /  10.1 °C 48.2 °F /  9 °C 29.97in /  1014.8hPa WNW 8.4mph /  13.5km/h 19mph /  30.6km/h 90% 0.00in /  0mm 5 W/m2
08:24 50.2 °F /  10.1 °C 48.2 °F /  9 °C 29.97in /  1014.8hPa WNW 9.6mph /  15.4km/h 16mph /  25.7km/h 90% 0.00in /  0mm 9 W/m2
08:29 50.2 °F /  10.1 °C 48.2 °F /  9 °C 29.97in /  1014.8hPa WNW 5.2mph /  8.4km/h 17mph /  27.4km/h 90% 0.00in /  0mm 11 W/m2
08:34 50.4 °F /  10.2 °C 48.4 °F /  9.1 °C 29.97in /  1014.8hPa WNW 6.6mph /  10.6km/h 17mph /  27.4km/h 90% 0.00in /  0mm 16 W/m2
08:39 50.4 °F /  10.2 °C 48.4 °F /  9.1 °C 29.98in /  1015.1hPa WNW 7mph /  11.3km/h 15mph /  24.1km/h 90% 0.00in /  0mm 18 W/m2
08:44 50.4 °F /  10.2 °C 48.4 °F /  9.1 °C 29.98in /  1015.1hPa WNW 9.9mph /  15.9km/h 14mph /  22.5km/h 90% 0.00in /  0mm 11 W/m2
08:49 50.4 °F /  10.2 °C 48.4 °F /  9.1 °C 29.98in /  1015.1hPa WNW 9.4mph /  15.1km/h 23mph /  37km/h 90% 0.00in /  0mm 12 W/m2
08:54 50.4 °F /  10.2 °C 48.4 °F /  9.1 °C 29.98in /  1015.1hPa WNW 12.6mph /  20.3km/h 18mph /  29km/h 90% 0.00in /  0mm 18 W/m2
08:59 50.4 °F /  10.2 °C 48.4 °F /  9.1 °C 29.97in /  1014.8hPa NW 10mph /  16.1km/h 21mph /  33.8km/h 90% 0.00in /  0mm 23 W/m2
09:04 50.4 °F /  10.2 °C 48.4 °F /  9.1 °C 29.97in /  1014.8hPa West 10.5mph /  16.9km/h 20mph /  32.2km/h 90% 0.00in /  0mm 21 W/m2
09:09 50.4 °F /  10.2 °C 48.4 °F /  9.1 °C 29.97in /  1014.8hPa WNW 11mph /  17.7km/h 22mph /  35.4km/h 90% 0.00in /  0mm 28 W/m2
09:14 50.4 °F /  10.2 °C 48.4 °F /  9.1 °C 29.97in /  1014.8hPa WNW 11mph /  17.7km/h 21mph /  33.8km/h 90% 0.00in /  0mm 35 W/m2
09:19 50.4 °F /  10.2 °C 48.4 °F /  9.1 °C 29.97in /  1014.8hPa WNW 11.2mph /  18km/h 19mph /  30.6km/h 90% 0.00in /  0mm 21 W/m2
09:24 50.4 °F /  10.2 °C 48.4 °F /  9.1 °C 29.97in /  1014.8hPa WNW 7.2mph /  11.6km/h 16mph /  25.7km/h 90% 0.00in /  0mm 21 W/m2
09:29 50.4 °F /  10.2 °C 48.4 °F /  9.1 °C 29.97in /  1014.8hPa West 7.8mph /  12.6km/h 16mph /  25.7km/h 90% 0.00in /  0mm 19 W/m2
09:34 50.4 °F /  10.2 °C 48.4 °F /  9.1 °C 29.97in /  1014.8hPa West 10.7mph /  17.2km/h 18mph /  29km/h 90% 0.00in /  0mm 21 W/m2
09:39 50.4 °F /  10.2 °C 48.4 °F /  9.1 °C 29.97in /  1014.8hPa West 12mph /  19.3km/h 21mph /  33.8km/h 90% 0.00in /  0mm 26 W/m2
09:44 50.5 °F /  10.3 °C 48.6 °F /  9.2 °C 29.97in /  1014.8hPa WNW 10mph /  16.1km/h 17mph /  27.4km/h 90% 0.00in /  0mm 32 W/m2
09:49 50.5 °F /  10.3 °C 48.6 °F /  9.2 °C 29.96in /  1014.4hPa WNW 9.2mph /  14.8km/h 20mph /  32.2km/h 90% 0.00in /  0mm 32 W/m2
09:54 50.6 °F /  10.3 °C 48.7 °F /  9.3 °C 29.97in /  1014.8hPa WNW 9mph /  14.5km/h 18mph /  29km/h 90% 0.00in /  0mm 49 W/m2
09:59 50.7 °F /  10.4 °C 48.7 °F /  9.3 °C 29.97in /  1014.8hPa WNW 10.7mph /  17.2km/h 19mph /  30.6km/h 89.8% 0.00in /  0mm 42 W/m2
10:04 50.7 °F /  10.4 °C 48.6 °F /  9.2 °C 29.97in /  1014.8hPa NW 11mph /  17.7km/h 20mph /  32.2km/h 89% 0.00in /  0mm 47 W/m2
10:09 50.9 °F /  10.5 °C 48.7 °F /  9.3 °C 29.96in /  1014.4hPa WNW 10.6mph /  17.1km/h 17mph /  27.4km/h 89% 0.00in /  0mm 44 W/m2
10:14 51 °F /  10.6 °C 48.8 °F /  9.3 °C 29.96in /  1014.4hPa NW 11.2mph /  18km/h 19mph /  30.6km/h 89% 0.00in /  0mm 51 W/m2
10:19 50.9 °F /  10.5 °C 48.7 °F /  9.3 °C 29.96in /  1014.4hPa WNW 8.8mph /  14.2km/h 19mph /  30.6km/h 89% 0.00in /  0mm 83 W/m2
10:24 51.1 °F /  10.6 °C 48.9 °F /  9.4 °C 29.96in /  1014.4hPa WNW 10.2mph /  16.4km/h 20mph /  32.2km/h 89% 0.00in /  0mm 104 W/m2
10:29 51.2 °F /  10.7 °C 49 °F /  9.4 °C 29.96in /  1014.4hPa WNW 15.8mph /  25.4km/h 25mph /  40.2km/h 89% 0.00in /  0mm 118 W/m2
10:34 51.3 °F /  10.7 °C 49.1 °F /  9.5 °C 29.96in /  1014.4hPa WNW 14.1mph /  22.7km/h 21mph /  33.8km/h 89% 0.00in /  0mm 100 W/m2
10:39 51.3 °F /  10.7 °C 49.1 °F /  9.5 °C 29.96in /  1014.4hPa NW 12.6mph /  20.3km/h 23mph /  37km/h 89% 0.00in /  0mm 104 W/m2
10:44 51.4 °F /  10.8 °C 49.3 °F /  9.6 °C 29.96in /  1014.4hPa West 12.1mph /  19.5km/h 23mph /  37km/h 89% 0.00in /  0mm 100 W/m2
10:49 51.4 °F /  10.8 °C 49.3 °F /  9.6 °C 29.95in /  1014.1hPa WNW 9.1mph /  14.6km/h 18mph /  29km/h 89% 0.00in /  0mm 90 W/m2
10:54 51.4 °F /  10.8 °C 49.3 °F /  9.6 °C 29.95in /  1014.1hPa NW 11.8mph /  19km/h 17mph /  27.4km/h 89% 0.00in /  0mm 84 W/m2
10:59 51.5 °F /  10.8 °C 49.4 °F /  9.7 °C 29.95in /  1014.1hPa WNW 8.6mph /  13.8km/h 19mph /  30.6km/h 89% 0.00in /  0mm 72 W/m2
11:04 51.6 °F /  10.9 °C 49.5 °F /  9.7 °C 29.95in /  1014.1hPa WNW 9.8mph /  15.8km/h 23mph /  37km/h 89% 0.00in /  0mm 65 W/m2
11:08 51.6 °F /  10.9 °C 49.5 °F /  9.7 °C 29.95in /  1014.1hPa WNW 11mph /  17.7km/h 24mph /  38.6km/h 89% 0.00in /  0mm 77 W/m2
11:14 51.6 °F /  10.9 °C 49.4 °F /  9.7 °C 29.95in /  1014.1hPa WNW 12.2mph /  19.6km/h 20mph /  32.2km/h 88.8% 0.00in /  0mm 88 W/m2
11:19 51.8 °F /  11 °C 49.5 °F /  9.7 °C 29.95in /  1014.1hPa NW 9.6mph /  15.4km/h 26mph /  41.8km/h 88.8% 0.00in /  0mm 93 W/m2
11:24 51.8 °F /  11 °C 49.3 °F /  9.6 °C 29.95in /  1014.1hPa WNW 11.5mph /  18.5km/h 23mph /  37km/h 88% 0.00in /  0mm 86 W/m2
11:29 51.8 °F /  11 °C 49.3 °F /  9.6 °C 29.95in /  1014.1hPa WNW 8.2mph /  13.2km/h 21mph /  33.8km/h 88% 0.00in /  0mm 84 W/m2
11:34 51.9 °F /  11.1 °C 49.4 °F /  9.7 °C 29.95in /  1014.1hPa WNW 11.6mph /  18.7km/h 19mph /  30.6km/h 88.2% 0.00in /  0mm 84 W/m2
11:39 52 °F /  11.1 °C 49.6 °F /  9.8 °C 29.95in /  1014.1hPa WNW 11.9mph /  19.2km/h 20mph /  32.2km/h 89% 0.00in /  0mm 74 W/m2
11:44 51.9 °F /  11.1 °C 49.6 °F /  9.8 °C 29.94in /  1013.8hPa WNW 14.6mph /  23.5km/h 25mph /  40.2km/h 89% 0.00in /  0mm 72 W/m2
11:49 51.8 °F /  11 °C 49.5 °F /  9.7 °C 29.94in /  1013.8hPa WNW 14.2mph /  22.9km/h 22mph /  35.4km/h 89% 0.00in /  0mm 86 W/m2
11:54 51.8 °F /  11 °C 49.5 °F /  9.7 °C 29.94in /  1013.8hPa WNW 14.8mph /  23.8km/h 21mph /  33.8km/h 89% 0.00in /  0mm 91 W/m2
11:59 52 °F /  11.1 °C 49.6 °F /  9.8 °C 29.94in /  1013.8hPa WNW 12.5mph /  20.1km/h 21mph /  33.8km/h 89% 0.00in /  0mm 141 W/m2
12:04 52 °F /  11.1 °C 49.6 °F /  9.8 °C 29.94in /  1013.8hPa WNW 14mph /  22.5km/h 25mph /  40.2km/h 89% 0.00in /  0mm 156 W/m2
12:09 52 °F /  11.1 °C 49.8 °F /  9.9 °C 29.94in /  1013.8hPa WNW 11.3mph /  18.2km/h 22mph /  35.4km/h 89.6% 0.00in /  0mm 169 W/m2
12:14 52 °F /  11.1 °C 50 °F /  10 °C 29.94in /  1013.8hPa WNW 12mph /  19.3km/h 21mph /  33.8km/h 90% 0.00in /  0mm 146 W/m2
12:19 52 °F /  11.1 °C 50 °F /  10 °C 29.94in /  1013.8hPa WNW 12.6mph /  20.3km/h 24mph /  38.6km/h 90% 0.00in /  0mm 139 W/m2
12:24 52 °F /  11.1 °C 50 °F /  10 °C 29.93in /  1013.4hPa WNW 10.2mph /  16.4km/h 22mph /  35.4km/h 90% 0.00in /  0mm 113 W/m2
12:29 51.9 °F /  11.1 °C 49.7 °F /  9.8 °C 29.93in /  1013.4hPa WNW 10.6mph /  17.1km/h 22mph /  35.4km/h 89.4% 0.00in /  0mm 128 W/m2
12:34 51.6 °F /  10.9 °C 49.5 °F /  9.7 °C 29.93in /  1013.4hPa WNW 12.6mph /  20.3km/h 29mph /  46.7km/h 89.2% 0.00in /  0mm 102 W/m2
12:39 51.6 °F /  10.9 °C 49.6 °F /  9.8 °C 29.93in /  1013.4hPa WNW 10.5mph /  16.9km/h 23mph /  37km/h 90% 0.00in /  0mm 84 W/m2
12:44 51.4 °F /  10.8 °C 49.5 °F /  9.7 °C 29.93in /  1013.4hPa WNW 11.3mph /  18.2km/h 21mph /  33.8km/h 90% 0.00in /  0mm 46 W/m2
12:49 51.3 °F /  10.7 °C 49.4 °F /  9.7 °C 29.93in /  1013.4hPa WNW 9.4mph /  15.1km/h 20mph /  32.2km/h 90.4% 0.00in /  0mm 40 W/m2
12:54 51.1 °F /  10.6 °C 49.5 °F /  9.7 °C 29.93in /  1013.4hPa WNW 7.8mph /  12.6km/h 20mph /  32.2km/h 91% 0.00in /  0mm 39 W/m2
12:59 51.1 °F /  10.6 °C 49.5 °F /  9.7 °C 29.93in /  1013.4hPa West 10.7mph /  17.2km/h 17mph /  27.4km/h 91% 0.00in /  0mm 65 W/m2
13:04 51.1 °F /  10.6 °C 49.5 °F /  9.7 °C 29.92in /  1013.1hPa WNW 9.5mph /  15.3km/h 17mph /  27.4km/h 91.2% 0.00in /  0mm 120 W/m2
13:09 51.1 °F /  10.6 °C 49.6 °F /  9.8 °C 29.91in /  1012.8hPa WNW 10.2mph /  16.4km/h 17mph /  27.4km/h 91.8% 0.00in /  0mm 95 W/m2
13:14 51.1 °F /  10.6 °C 49.6 °F /  9.8 °C 29.91in /  1012.8hPa WNW 10.8mph /  17.4km/h 20mph /  32.2km/h 92% 0.00in /  0mm 76 W/m2
13:19 51.1 °F /  10.6 °C 49.6 °F /  9.8 °C 29.91in /  1012.8hPa WNW 11.8mph /  19km/h 19mph /  30.6km/h 92% 0.00in /  0mm 84 W/m2
13:24 50.9 °F /  10.5 °C 49.7 °F /  9.8 °C 29.91in /  1012.8hPa WNW 11.8mph /  19km/h 23mph /  37km/h 92.6% 0.00in /  0mm 107 W/m2
13:29 50.9 °F /  10.5 °C 49.8 °F /  9.9 °C 29.91in /  1012.8hPa WNW 10.5mph /  16.9km/h 21mph /  33.8km/h 93% 0.00in /  0mm 137 W/m2
13:34 50.9 °F /  10.5 °C 49.8 °F /  9.9 °C 29.91in /  1012.8hPa West 13.3mph /  21.4km/h 21mph /  33.8km/h 93% 0.00in /  0mm 113 W/m2
13:39 50.9 °F /  10.5 °C 49.8 °F /  9.9 °C 29.91in /  1012.8hPa WNW 11.4mph /  18.3km/h 19mph /  30.6km/h 93% 0.00in /  0mm 79 W/m2
13:44 51 °F /  10.6 °C 49.9 °F /  9.9 °C 29.91in /  1012.8hPa WNW 10.8mph /  17.4km/h 20mph /  32.2km/h 93% 0.00in /  0mm 47 W/m2
13:49 51.1 °F /  10.6 °C 50 °F /  10 °C 29.90in /  1012.4hPa WNW 8.2mph /  13.2km/h 14mph /  22.5km/h 93% 0.00in /  0mm 44 W/m2
13:54 51.1 °F /  10.6 °C 50 °F /  10 °C 29.90in /  1012.4hPa WNW 7.9mph /  12.7km/h 15mph /  24.1km/h 93% 0.00in /  0mm 56 W/m2
13:59 50.9 °F /  10.5 °C 49.8 °F /  9.9 °C 29.90in /  1012.4hPa WNW 10.8mph /  17.4km/h 20mph /  32.2km/h 93% 0.00in /  0mm 100 W/m2
14:04 50.9 °F /  10.5 °C 49.8 °F /  9.9 °C 29.89in /  1012.1hPa West 10.7mph /  17.2km/h 20mph /  32.2km/h 93% 0.00in /  0mm 95 W/m2
14:09 50.9 °F /  10.5 °C 49.8 °F /  9.9 °C 29.89in /  1012.1hPa WNW 6.4mph /  10.3km/h 16mph /  25.7km/h 93% 0.00in /  0mm 116 W/m2
14:14 50.8 °F /  10.4 °C 49.7 °F /  9.8 °C 29.89in /  1012.1hPa WNW 14.3mph /  23km/h 22mph /  35.4km/h 93% 0.00in /  0mm 127 W/m2
14:19 50.7 °F /  10.4 °C 49.6 °F /  9.8 °C 29.89in /  1012.1hPa WNW 8.2mph /  13.2km/h 18mph /  29km/h 93% 0.00in /  0mm 111 W/m2
14:24 50.8 °F /  10.4 °C 49.7 °F /  9.8 °C 29.89in /  1012.1hPa WNW 9mph /  14.5km/h 17mph /  27.4km/h 93% 0.00in /  0mm 123 W/m2
14:29 50.7 °F /  10.4 °C 49.6 °F /  9.8 °C 29.89in /  1012.1hPa West 10.1mph /  16.3km/h 17mph /  27.4km/h 93% 0.00in /  0mm 83 W/m2
14:34 50.8 °F /  10.4 °C 49.7 °F /  9.8 °C 29.88in /  1011.7hPa WNW 9.8mph /  15.8km/h 14mph /  22.5km/h 93% 0.00in /  0mm 53 W/m2
14:39 50.7 °F /  10.4 °C 49.6 °F /  9.8 °C 29.88in /  1011.7hPa WNW 9.5mph /  15.3km/h 15mph /  24.1km/h 93% 0.00in /  0mm 51 W/m2
14:44 50.7 °F /  10.4 °C 49.6 °F /  9.8 °C 29.88in /  1011.7hPa WNW 9.6mph /  15.4km/h 15mph /  24.1km/h 93% 0.00in /  0mm 39 W/m2
14:49 50.7 °F /  10.4 °C 49.6 °F /  9.8 °C 29.88in /  1011.7hPa WNW 6.6mph /  10.6km/h 13mph /  20.9km/h 93% 0.00in /  0mm 28 W/m2
14:54 50.6 °F /  10.3 °C 49.7 °F /  9.8 °C 29.88in /  1011.7hPa West 10.6mph /  17.1km/h 18mph /  29km/h 93.4% 0.00in /  0mm 28 W/m2
14:59 50.5 °F /  10.3 °C 49.8 °F /  9.9 °C 29.88in /  1011.7hPa West 5.8mph /  9.3km/h 13mph /  20.9km/h 94% 0.00in /  0mm 26 W/m2
15:04 50.5 °F /  10.3 °C 49.8 °F /  9.9 °C 29.87in /  1011.4hPa West 7.4mph /  11.9km/h 13mph /  20.9km/h 94% 0.00in /  0mm 26 W/m2
15:09 50.5 °F /  10.3 °C 49.8 °F /  9.9 °C 29.87in /  1011.4hPa WNW 5.5mph /  8.9km/h 13mph /  20.9km/h 94% 0.00in /  0mm 21 W/m2
15:14 50.5 °F /  10.3 °C 49.8 °F /  9.9 °C 29.87in /  1011.4hPa WNW 9.4mph /  15.1km/h 15mph /  24.1km/h 94% 0.00in /  0mm 19 W/m2
15:19 50.5 °F /  10.3 °C 49.8 °F /  9.9 °C 29.87in /  1011.4hPa WNW 7.8mph /  12.6km/h 14mph /  22.5km/h 94% 0.00in /  0mm 18 W/m2
15:24 50.5 °F /  10.3 °C 49.8 °F /  9.9 °C 29.86in /  1011.1hPa WNW 8.6mph /  13.8km/h 18mph /  29km/h 94% 0.00in /  0mm 12 W/m2
15:29 50.5 °F /  10.3 °C 49.8 °F /  9.9 °C 29.86in /  1011.1hPa West 8.4mph /  13.5km/h 13mph /  20.9km/h 94% 0.00in /  0mm 11 W/m2
15:34 50.5 °F /  10.3 °C 49.8 °F /  9.9 °C 29.86in /  1011.1hPa WNW 8.2mph /  13.2km/h 15mph /  24.1km/h 94% 0.00in /  0mm 9 W/m2
15:39 50.5 °F /  10.3 °C 49.8 °F /  9.9 °C 29.85in /  1010.7hPa WNW 6mph /  9.7km/h 14mph /  22.5km/h 94% 0.00in /  0mm 7 W/m2
15:44 50.5 °F /  10.3 °C 49.8 °F /  9.9 °C 29.85in /  1010.7hPa West 6.5mph /  10.5km/h 11mph /  17.7km/h 94% 0.00in /  0mm 5 W/m2
15:49 50.5 °F /  10.3 °C 49.8 °F /  9.9 °C 29.85in /  1010.7hPa WNW 5.6mph /  9km/h 11mph /  17.7km/h 94% 0.00in /  0mm 5 W/m2
15:54 50.5 °F /  10.3 °C 49.8 °F /  9.9 °C 29.84in /  1010.4hPa West 8.2mph /  13.2km/h 12mph /  19.3km/h 94% 0.00in /  0mm 0 W/m2
15:59 50.5 °F /  10.3 °C 49.8 °F /  9.9 °C 29.84in /  1010.4hPa West 6.8mph /  10.9km/h 13mph /  20.9km/h 94% 0.00in /  0mm 0 W/m2
16:04 50.5 °F /  10.3 °C 49.8 °F /  9.9 °C 29.84in /  1010.4hPa West 4.6mph /  7.4km/h 13mph /  20.9km/h 94% 0.00in /  0mm 0 W/m2
16:09 50.5 °F /  10.3 °C 49.8 °F /  9.9 °C 29.83in /  1010hPa West 6.6mph /  10.6km/h 12mph /  19.3km/h 94% 0.00in /  0mm 0 W/m2
16:14 50.5 °F /  10.3 °C 49.8 °F /  9.9 °C 29.83in /  1010hPa West 5mph /  8km/h 11mph /  17.7km/h 94% 0.00in /  0mm 0 W/m2
16:19 50.5 °F /  10.3 °C 49.8 °F /  9.9 °C 29.83in /  1010hPa WSW 5.2mph /  8.4km/h 12mph /  19.3km/h 94% 0.00in /  0mm 0 W/m2
16:24 50.5 °F /  10.3 °C 49.8 °F /  9.9 °C 29.83in /  1010hPa West 6.6mph /  10.6km/h 12mph /  19.3km/h 94% 0.00in /  0mm 0 W/m2
16:29 50.5 °F /  10.3 °C 49.8 °F /  9.9 °C 29.83in /  1010hPa West 5.4mph /  8.7km/h 11mph /  17.7km/h 94% 0.00in /  0mm 0 W/m2
16:34 50.5 °F /  10.3 °C 49.8 °F /  9.9 °C 29.82in /  1009.7hPa West 7.8mph /  12.6km/h 14mph /  22.5km/h 94% 0.00in /  0mm 0 W/m2
16:39 50.5 °F /  10.3 °C 49.8 °F /  9.9 °C 29.82in /  1009.7hPa West 6.2mph /  10km/h 12mph /  19.3km/h 94% 0.00in /  0mm 0 W/m2
16:44 50.6 °F /  10.3 °C 49.9 °F /  9.9 °C 29.82in /  1009.7hPa West 6.6mph /  10.6km/h 8mph /  12.9km/h 94% 0.00in /  0mm 0 W/m2
16:49 50.7 °F /  10.4 °C 50 °F /  10 °C 29.82in /  1009.7hPa WSW 4.3mph /  6.9km/h 10mph /  16.1km/h 94% 0.00in /  0mm 0 W/m2
16:54 50.7 °F /  10.4 °C 50 °F /  10 °C 29.81in /  1009.4hPa West 4.1mph /  6.6km/h 9mph /  14.5km/h 94% 0.00in /  0mm 0 W/m2
16:59 50.7 °F /  10.4 °C 50 °F /  10 °C 29.81in /  1009.4hPa West 5.4mph /  8.7km/h 10mph /  16.1km/h 94% 0.00in /  0mm 0 W/m2
17:04 50.8 °F /  10.4 °C 50.1 °F /  10.1 °C 29.81in /  1009.4hPa WSW 6.6mph /  10.6km/h 13mph /  20.9km/h 94% 0.00in /  0mm 0 W/m2
17:09 50.9 °F /  10.5 °C 50.2 °F /  10.1 °C 29.80in /  1009hPa West 8.2mph /  13.2km/h 13mph /  20.9km/h 94% 0.00in /  0mm 0 W/m2
17:14 51.1 °F /  10.6 °C 50.2 °F /  10.1 °C 29.80in /  1009hPa West 5.8mph /  9.3km/h 13mph /  20.9km/h 93.6% 0.00in /  0mm 0 W/m2
17:19 51.1 °F /  10.6 °C 50 °F /  10 °C 29.80in /  1009hPa West 5.3mph /  8.5km/h 11mph /  17.7km/h 93% 0.00in /  0mm 0 W/m2
17:24 51.1 °F /  10.6 °C 50 °F /  10 °C 29.80in /  1009hPa West 6.8mph /  10.9km/h 14mph /  22.5km/h 93% 0.00in /  0mm 0 W/m2
17:29 51.3 °F /  10.7 °C 49.9 °F /  9.9 °C 29.79in /  1008.7hPa WSW 7mph /  11.3km/h 14mph /  22.5km/h 92.4% 0.00in /  0mm 0 W/m2
17:34 51.3 °F /  10.7 °C 49.8 °F /  9.9 °C 29.79in /  1008.7hPa WSW 6.7mph /  10.8km/h 14mph /  22.5km/h 92% 0.00in /  0mm 0 W/m2
17:39 51.2 °F /  10.7 °C 49.7 °F /  9.8 °C 29.79in /  1008.7hPa WSW 7.1mph /  11.4km/h 14mph /  22.5km/h 91.8% 0.00in /  0mm 0 W/m2
17:44 51.1 °F /  10.6 °C 49.5 °F /  9.7 °C 29.79in /  1008.7hPa SW 6.7mph /  10.8km/h 14mph /  22.5km/h 91.2% 0.00in /  0mm 0 W/m2
17:49 51.2 °F /  10.7 °C 49.6 °F /  9.8 °C 29.78in /  1008.4hPa SW 8.3mph /  13.4km/h 17mph /  27.4km/h 91% 0.00in /  0mm 0 W/m2
17:53 51.3 °F /  10.7 °C 49.3 °F /  9.6 °C 29.78in /  1008.4hPa SW 8mph /  12.9km/h 13mph /  20.9km/h 90% 0.00in /  0mm 0 W/m2
18:09 51.1 °F /  10.6 °C 48.9 °F /  9.4 °C 29.77in /  1008hPa WSW 4.2mph /  6.8km/h 9mph /  14.5km/h 89% 0.00in /  0mm 0 W/m2
18:14 51.1 °F /  10.6 °C 48.9 °F /  9.4 °C 29.76in /  1007.7hPa WSW 7.3mph /  11.7km/h 12mph /  19.3km/h 89% 0.00in /  0mm 0 W/m2
18:19 51.1 °F /  10.6 °C 48.9 °F /  9.4 °C 29.76in /  1007.7hPa SW 6.4mph /  10.3km/h 16mph /  25.7km/h 89% 0.00in /  0mm 0 W/m2
18:24 51.1 °F /  10.6 °C 48.9 °F /  9.4 °C 29.76in /  1007.7hPa SW 8.4mph /  13.5km/h 16mph /  25.7km/h 89% 0.00in /  0mm 0 W/m2
18:29 50.9 °F /  10.5 °C 48.7 °F /  9.3 °C 29.75in /  1007.3hPa WSW 5.7mph /  9.2km/h 14mph /  22.5km/h 89% 0.00in /  0mm 0 W/m2
18:34 50.9 °F /  10.5 °C 48.7 °F /  9.3 °C 29.75in /  1007.3hPa WSW 4.8mph /  7.7km/h 10mph /  16.1km/h 89% 0.00in /  0mm 0 W/m2
18:39 50.7 °F /  10.4 °C 48.6 °F /  9.2 °C 29.75in /  1007.3hPa SW 6.6mph /  10.6km/h 13mph /  20.9km/h 89% 0.00in /  0mm 0 W/m2
18:44 50.7 °F /  10.4 °C 48.6 °F /  9.2 °C 29.75in /  1007.3hPa SW 5.8mph /  9.3km/h 14mph /  22.5km/h 89% 0.00in /  0mm 0 W/m2
18:49 50.7 °F /  10.4 °C 48.6 °F /  9.2 °C 29.74in /  1007hPa WSW 7.8mph /  12.6km/h 13mph /  20.9km/h 89% 0.00in /  0mm 0 W/m2
18:54 50.7 °F /  10.4 °C 48.6 °F /  9.2 °C 29.74in /  1007hPa SW 3.5mph /  5.6km/h 9mph /  14.5km/h 89% 0.00in /  0mm 0 W/m2
18:59 50.7 °F /  10.4 °C 48.6 °F /  9.2 °C 29.73in /  1006.7hPa WSW 8.6mph /  13.8km/h 16mph /  25.7km/h 89% 0.00in /  0mm 0 W/m2
19:04 50.7 °F /  10.4 °C 48.6 °F /  9.2 °C 29.73in /  1006.7hPa WSW 6.8mph /  10.9km/h 11mph /  17.7km/h 89% 0.00in /  0mm 0 W/m2
19:09 50.7 °F /  10.4 °C 48.6 °F /  9.2 °C 29.73in /  1006.7hPa WSW 3.4mph /  5.5km/h 10mph /  16.1km/h 89% 0.00in /  0mm 0 W/m2
19:14 50.7 °F /  10.4 °C 48.6 °F /  9.2 °C 29.72in /  1006.3hPa WSW 6.8mph /  10.9km/h 14mph /  22.5km/h 89% 0.00in /  0mm 0 W/m2
19:19 50.7 °F /  10.4 °C 48.6 °F /  9.2 °C 29.72in /  1006.3hPa WSW 7mph /  11.3km/h 14mph /  22.5km/h 89% 0.00in /  0mm 0 W/m2
19:24 50.7 °F /  10.4 °C 48.6 °F /  9.2 °C 29.72in /  1006.3hPa WSW 7.4mph /  11.9km/h 11mph /  17.7km/h 89% 0.00in /  0mm 0 W/m2
19:29 50.6 °F /  10.3 °C 48.5 °F /  9.2 °C 29.72in /  1006.3hPa West 9.9mph /  15.9km/h 15mph /  24.1km/h 89% 0.00in /  0mm 0 W/m2
19:34 50.7 °F /  10.4 °C 48.6 °F /  9.2 °C 29.71in /  1006hPa WSW 8.9mph /  14.3km/h 15mph /  24.1km/h 89% 0.00in /  0mm 0 W/m2
19:39 50.5 °F /  10.3 °C 48.4 °F /  9.1 °C 29.71in /  1006hPa WSW 9.6mph /  15.4km/h 17mph /  27.4km/h 89% 0.00in /  0mm 0 W/m2
19:44 50.5 °F /  10.3 °C 48.4 °F /  9.1 °C 29.71in /  1006hPa WSW 8.2mph /  13.2km/h 16mph /  25.7km/h 89% 0.00in /  0mm 0 W/m2
19:49 50.5 °F /  10.3 °C 48.4 °F /  9.1 °C 29.70in /  1005.6hPa WSW 10.8mph /  17.4km/h 17mph /  27.4km/h 89% 0.00in /  0mm 0 W/m2
19:54 50.6 °F /  10.3 °C 48.5 °F /  9.2 °C 29.70in /  1005.6hPa WSW 12.8mph /  20.6km/h 17mph /  27.4km/h 89% 0.00in /  0mm 0 W/m2
19:59 50.5 °F /  10.3 °C 48.4 °F /  9.1 °C 29.69in /  1005.3hPa SW 6.2mph /  10km/h 14mph /  22.5km/h 89% 0.00in /  0mm 0 W/m2
20:04 50.5 °F /  10.3 °C 48.4 °F /  9.1 °C 29.69in /  1005.3hPa WSW 6.4mph /  10.3km/h 13mph /  20.9km/h 89% 0.00in /  0mm 0 W/m2
20:09 50.5 °F /  10.3 °C 48.4 °F /  9.1 °C 29.68in /  1005hPa WSW 8.2mph /  13.2km/h 13mph /  20.9km/h 89% 0.00in /  0mm 0 W/m2
20:14 50.5 °F /  10.3 °C 48.4 °F /  9.1 °C 29.68in /  1005hPa WSW 7.5mph /  12.1km/h 14mph /  22.5km/h 89% 0.00in /  0mm 0 W/m2
20:19 50.5 °F /  10.3 °C 48.4 °F /  9.1 °C 29.67in /  1004.6hPa WSW 10mph /  16.1km/h 20mph /  32.2km/h 89% 0.00in /  0mm 0 W/m2
20:24 50.4 °F /  10.2 °C 48.3 °F /  9.1 °C 29.67in /  1004.6hPa WSW 6.6mph /  10.6km/h 17mph /  27.4km/h 89% 0.00in /  0mm 0 W/m2
20:29 50.4 °F /  10.2 °C 48.2 °F /  9 °C 29.66in /  1004.3hPa WSW 8.8mph /  14.2km/h 15mph /  24.1km/h 89% 0.00in /  0mm 0 W/m2
20:34 50.4 °F /  10.2 °C 48.2 °F /  9 °C 29.65in /  1003.9hPa SW 9mph /  14.5km/h 17mph /  27.4km/h 89% 0.00in /  0mm 0 W/m2
20:39 50.4 °F /  10.2 °C 48.2 °F /  9 °C 29.65in /  1003.9hPa WSW 9.4mph /  15.1km/h 16mph /  25.7km/h 89% 0.00in /  0mm 0 W/m2
20:44 50.4 °F /  10.2 °C 48.2 °F /  9 °C 29.65in /  1003.9hPa WSW 8.3mph /  13.4km/h 15mph /  24.1km/h 89% 0.00in /  0mm 0 W/m2
20:49 50.4 °F /  10.2 °C 48.2 °F /  9 °C 29.65in /  1003.9hPa West 9.4mph /  15.1km/h 16mph /  25.7km/h 89% 0.00in /  0mm 0 W/m2
20:54 50.4 °F /  10.2 °C 48.2 °F /  9 °C 29.65in /  1003.9hPa WSW 9.6mph /  15.4km/h 15mph /  24.1km/h 89% 0.00in /  0mm 0 W/m2
20:59 50.5 °F /  10.3 °C 48.3 °F /  9.1 °C 29.65in /  1003.9hPa WSW 10.3mph /  16.6km/h 17mph /  27.4km/h 89% 0.00in /  0mm 0 W/m2
21:04 50.5 °F /  10.3 °C 48.4 °F /  9.1 °C 29.65in /  1003.9hPa WSW 11.4mph /  18.3km/h 20mph /  32.2km/h 89% 0.00in /  0mm 0 W/m2
21:09 50.5 °F /  10.3 °C 48.1 °F /  8.9 °C 29.64in /  1003.6hPa SW 10.1mph /  16.3km/h 18mph /  29km/h 88.2% 0.00in /  0mm 0 W/m2
21:14 50.7 °F /  10.4 °C 48.2 °F /  9 °C 29.64in /  1003.6hPa SW 8.6mph /  13.8km/h 17mph /  27.4km/h 88% 0.00in /  0mm 0 W/m2
21:19 50.7 °F /  10.4 °C 48.2 °F /  9 °C 29.64in /  1003.6hPa WSW 14.2mph /  22.9km/h 22mph /  35.4km/h 88% 0.00in /  0mm 0 W/m2
21:24 50.7 °F /  10.4 °C 48 °F /  8.9 °C 29.63in /  1003.3hPa WSW 11.4mph /  18.3km/h 20mph /  32.2km/h 87.6% 0.00in /  0mm 0 W/m2
21:29 50.7 °F /  10.4 °C 47.8 °F /  8.8 °C 29.62in /  1002.9hPa WSW 10.8mph /  17.4km/h 19mph /  30.6km/h 87% 0.00in /  0mm 0 W/m2
21:34 50.5 °F /  10.3 °C 47.9 °F /  8.8 °C 29.62in /  1002.9hPa WSW 9.8mph /  15.8km/h 19mph /  30.6km/h 87.6% 0.00in /  0mm 0 W/m2
21:39 50.5 °F /  10.3 °C 47.9 °F /  8.8 °C 29.62in /  1002.9hPa SW 11mph /  17.7km/h 18mph /  29km/h 88% 0.00in /  0mm 0 W/m2
21:44 50.4 °F /  10.2 °C 47.8 °F /  8.8 °C 29.61in /  1002.6hPa SW 10.1mph /  16.3km/h 19mph /  30.6km/h 88% 0.00in /  0mm 0 W/m2
21:49 50.2 °F /  10.1 °C 47.8 °F /  8.8 °C 29.61in /  1002.6hPa SW 6.6mph /  10.6km/h 16mph /  25.7km/h 88.2% 0.01in /  0.25mm 0 W/m2
21:54 50 °F /  10 °C 47.7 °F /  8.7 °C 29.60in /  1002.3hPa WSW 6.1mph /  9.8km/h 14mph /  22.5km/h 88.6% 0.01in /  0.25mm 0 W/m2
21:59 49.8 °F /  9.9 °C 47.7 °F /  8.7 °C 29.59in /  1001.9hPa West 4.9mph /  7.9km/h 10mph /  16.1km/h 89% 0.02in /  0.51mm 0 W/m2
22:04 49.6 °F /  9.8 °C 47.6 °F /  8.7 °C 29.59in /  1001.9hPa SW 7.6mph /  12.2km/h 16mph /  25.7km/h 89.6% 0.02in /  0.51mm 0 W/m2
22:09 49.6 °F /  9.8 °C 47.7 °F /  8.7 °C 29.59in /  1001.9hPa SW 7.2mph /  11.6km/h 15mph /  24.1km/h 90% 0.02in /  0.51mm 0 W/m2
22:14 49.6 °F /  9.8 °C 47.7 °F /  8.7 °C 29.58in /  1001.6hPa SW 8.4mph /  13.5km/h 14mph /  22.5km/h 90% 0.02in /  0.51mm 0 W/m2
22:19 49.6 °F /  9.8 °C 47.7 °F /  8.7 °C 29.58in /  1001.6hPa SW 7.8mph /  12.6km/h 15mph /  24.1km/h 90% 0.02in /  0.51mm 0 W/m2
22:24 49.6 °F /  9.8 °C 47.7 °F /  8.7 °C 29.57in /  1001.2hPa SW 8.5mph /  13.7km/h 16mph /  25.7km/h 90.2% 0.02in /  0.51mm 0 W/m2
22:29 49.5 °F /  9.7 °C 47.8 °F /  8.8 °C 29.57in /  1001.2hPa WSW 6.2mph /  10km/h 16mph /  25.7km/h 91% 0.02in /  0.51mm 0 W/m2
22:34 49.4 °F /  9.7 °C 47.7 °F /  8.7 °C 29.56in /  1000.9hPa WSW 4.3mph /  6.9km/h 9mph /  14.5km/h 91% 0.02in /  0.51mm 0 W/m2
22:39 49.3 °F /  9.6 °C 47.7 °F /  8.7 °C 29.56in /  1000.9hPa WSW 5.7mph /  9.2km/h 11mph /  17.7km/h 91% 0.02in /  0.51mm 0 W/m2
22:44 49.3 °F /  9.6 °C 47.7 °F /  8.7 °C 29.55in /  1000.6hPa WSW 7.4mph /  11.9km/h 14mph /  22.5km/h 91% 0.02in /  0.51mm 0 W/m2
22:49 49.4 °F /  9.7 °C 48.1 °F /  8.9 °C 29.55in /  1000.6hPa WSW 8.6mph /  13.8km/h 14mph /  22.5km/h 92% 0.02in /  0.51mm 0 W/m2
22:54 49.5 °F /  9.7 °C 48.2 °F /  9 °C 29.55in /  1000.6hPa WSW 5.1mph /  8.2km/h 14mph /  22.5km/h 92% 0.02in /  0.51mm 0 W/m2
22:59 49.5 °F /  9.7 °C 48.2 °F /  9 °C 29.54in /  1000.2hPa WSW 9mph /  14.5km/h 16mph /  25.7km/h 92% 0.02in /  0.51mm 0 W/m2
23:04 49.5 °F /  9.7 °C 48.2 °F /  9 °C 29.54in /  1000.2hPa WSW 8.1mph /  13km/h 16mph /  25.7km/h 92% 0.01in /  0.25mm 0 W/m2
23:09 49.6 °F /  9.8 °C 48.3 °F /  9.1 °C 29.54in /  1000.2hPa WSW 7mph /  11.3km/h 16mph /  25.7km/h 92% 0.01in /  0.25mm 0 W/m2
23:14 49.7 °F /  9.8 °C 48.5 °F /  9.2 °C 29.53in /  999.9hPa WSW 11.6mph /  18.7km/h 19mph /  30.6km/h 92% 0.01in /  0.25mm 0 W/m2
23:19 49.8 °F /  9.9 °C 48.6 °F /  9.2 °C 29.53in /  999.9hPa WSW 7.6mph /  12.2km/h 19mph /  30.6km/h 92% 0.01in /  0.25mm 0 W/m2
23:24 50 °F /  10 °C 48.8 °F /  9.3 °C 29.53in /  999.9hPa WSW 8.2mph /  13.2km/h 22mph /  35.4km/h 92.2% 0.01in /  0.25mm 0 W/m2
23:29 50.2 °F /  10.1 °C 49.1 °F /  9.5 °C 29.53in /  999.9hPa West 7.6mph /  12.2km/h 18mph /  29km/h 92.8% 0.01in /  0.25mm 0 W/m2
23:34 50.2 °F /  10.1 °C 49.1 °F /  9.5 °C 29.52in /  999.5hPa West 7.4mph /  11.9km/h 17mph /  27.4km/h 93% 0.01in /  0.25mm 0 W/m2
23:39 50.2 °F /  10.1 °C 49.1 °F /  9.5 °C 29.52in /  999.5hPa West 7.8mph /  12.6km/h 15mph /  24.1km/h 93% 0.00in /  0mm 0 W/m2
23:44 50.3 °F /  10.2 °C 49.2 °F /  9.6 °C 29.52in /  999.5hPa WNW 13.2mph /  21.2km/h 21mph /  33.8km/h 93% 0.00in /  0mm 0 W/m2
23:49 50.6 °F /  10.3 °C 49.5 °F /  9.7 °C 29.52in /  999.5hPa West 11mph /  17.7km/h 25mph /  40.2km/h 93% 0.00in /  0mm 0 W/m2
23:54 50.8 °F /  10.4 °C 49.6 °F /  9.8 °C 29.52in /  999.5hPa WNW 11.3mph /  18.2km/h 19mph /  30.6km/h 92.8% 0.00in /  0mm 0 W/m2
23:59 51 °F /  10.6 °C 49.8 °F /  9.9 °C 29.51in /  999.2hPa WNW 9.7mph /  15.6km/h 21mph /  33.8km/h 92.8% 0.00in /  0mm 0 W/m2
Bath Spa Weather
Compliments of Weather Underground - 2 mb